sensor_id;sensor_type;location;lat;lon;timestamp;P1;durP1;ratioP1;P2;durP2;ratioP2
49610;SDS011;35515;48.766;9.176;2023-05-16T00:01:19;10.80;;;7.20;;
49610;SDS011;35515;48.766;9.176;2023-05-16T00:03:46;9.95;;;7.70;;
49610;SDS011;35515;48.766;9.176;2023-05-16T00:06:12;8.40;;;7.28;;
49610;SDS011;35515;48.766;9.176;2023-05-16T00:08:40;8.95;;;7.38;;
49610;SDS011;35515;48.766;9.176;2023-05-16T00:11:07;9.20;;;7.68;;
49610;SDS011;35515;48.766;9.176;2023-05-16T00:13:33;10.25;;;7.47;;
49610;SDS011;35515;48.766;9.176;2023-05-16T00:16:00;8.90;;;7.25;;
49610;SDS011;35515;48.766;9.176;2023-05-16T00:18:28;9.15;;;6.63;;
49610;SDS011;35515;48.766;9.176;2023-05-16T00:20:55;11.80;;;8.27;;
49610;SDS011;35515;48.766;9.176;2023-05-16T00:23:22;10.48;;;8.20;;
49610;SDS011;35515;48.766;9.176;2023-05-16T00:25:50;9.20;;;7.63;;
49610;SDS011;35515;48.766;9.176;2023-05-16T00:28:17;10.30;;;8.10;;
49610;SDS011;35515;48.766;9.176;2023-05-16T00:30:43;10.63;;;9.00;;
49610;SDS011;35515;48.766;9.176;2023-05-16T00:33:10;9.50;;;7.93;;
49610;SDS011;35515;48.766;9.176;2023-05-16T00:35:37;11.50;;;8.95;;
49610;SDS011;35515;48.766;9.176;2023-05-16T00:38:03;11.07;;;9.57;;
49610;SDS011;35515;48.766;9.176;2023-05-16T00:40:30;13.65;;;11.25;;
49610;SDS011;35515;48.766;9.176;2023-05-16T00:42:58;12.68;;;9.82;;
49610;SDS011;35515;48.766;9.176;2023-05-16T00:45:24;15.35;;;11.43;;
49610;SDS011;35515;48.766;9.176;2023-05-16T00:47:51;15.35;;;12.05;;
49610;SDS011;35515;48.766;9.176;2023-05-16T00:50:18;18.67;;;14.20;;
49610;SDS011;35515;48.766;9.176;2023-05-16T00:52:45;17.92;;;13.88;;
49610;SDS011;35515;48.766;9.176;2023-05-16T00:55:12;17.73;;;15.07;;
49610;SDS011;35515;48.766;9.176;2023-05-16T00:57:39;19.30;;;15.57;;
49610;SDS011;35515;48.766;9.176;2023-05-16T01:00:07;21.98;;;17.17;;
49610;SDS011;35515;48.766;9.176;2023-05-16T01:02:34;24.10;;;16.45;;
49610;SDS011;35515;48.766;9.176;2023-05-16T01:05:02;20.75;;;16.45;;
49610;SDS011;35515;48.766;9.176;2023-05-16T01:07:29;20.63;;;16.42;;
49610;SDS011;35515;48.766;9.176;2023-05-16T01:09:56;22.80;;;16.17;;
49610;SDS011;35515;48.766;9.176;2023-05-16T01:12:25;21.15;;;14.75;;
49610;SDS011;35515;48.766;9.176;2023-05-16T01:14:59;24.02;;;16.80;;
49610;SDS011;35515;48.766;9.176;2023-05-16T01:17:42;22.10;;;16.38;;
49610;SDS011;35515;48.766;9.176;2023-05-16T01:20:16;21.52;;;15.32;;
49610;SDS011;35515;48.766;9.176;2023-05-16T01:22:52;18.33;;;15.25;;
49610;SDS011;35515;48.766;9.176;2023-05-16T01:28:23;25.90;;;19.60;;
49610;SDS011;35515;48.766;9.176;2023-05-16T01:30:51;30.20;;;21.27;;
49610;SDS011;35515;48.766;9.176;2023-05-16T01:33:17;23.58;;;17.67;;
49610;SDS011;35515;48.766;9.176;2023-05-16T01:35:46;27.85;;;19.58;;
49610;SDS011;35515;48.766;9.176;2023-05-16T01:38:23;25.02;;;19.35;;
49610;SDS011;35515;48.766;9.176;2023-05-16T01:40:52;26.02;;;19.02;;
49610;SDS011;35515;48.766;9.176;2023-05-16T01:43:32;25.83;;;19.92;;
49610;SDS011;35515;48.766;9.176;2023-05-16T01:46:02;29.38;;;21.65;;
49610;SDS011;35515;48.766;9.176;2023-05-16T01:48:34;32.97;;;22.83;;
49610;SDS011;35515;48.766;9.176;2023-05-16T01:51:05;34.13;;;22.23;;
49610;SDS011;35515;48.766;9.176;2023-05-16T01:53:34;31.33;;;22.05;;
49610;SDS011;35515;48.766;9.176;2023-05-16T01:58:35;32.70;;;23.38;;
49610;SDS011;35515;48.766;9.176;2023-05-16T02:01:03;32.25;;;23.45;;
49610;SDS011;35515;48.766;9.176;2023-05-16T02:03:31;33.78;;;25.02;;
49610;SDS011;35515;48.766;9.176;2023-05-16T02:05:58;31.58;;;22.58;;
49610;SDS011;35515;48.766;9.176;2023-05-16T02:08:25;36.33;;;23.02;;
49610;SDS011;35515;48.766;9.176;2023-05-16T02:10:52;33.15;;;23.23;;
49610;SDS011;35515;48.766;9.176;2023-05-16T02:13:19;33.80;;;23.60;;
49610;SDS011;35515;48.766;9.176;2023-05-16T02:15:47;31.55;;;23.95;;
49610;SDS011;35515;48.766;9.176;2023-05-16T02:18:14;30.08;;;21.95;;
49610;SDS011;35515;48.766;9.176;2023-05-16T02:20:41;29.15;;;22.48;;
49610;SDS011;35515;48.766;9.176;2023-05-16T02:23:07;33.85;;;24.77;;
49610;SDS011;35515;48.766;9.176;2023-05-16T02:25:34;34.70;;;24.42;;
49610;SDS011;35515;48.766;9.176;2023-05-16T02:28:00;35.78;;;23.67;;
49610;SDS011;35515;48.766;9.176;2023-05-16T02:30:27;34.47;;;24.52;;
49610;SDS011;35515;48.766;9.176;2023-05-16T02:32:55;37.63;;;24.33;;
49610;SDS011;35515;48.766;9.176;2023-05-16T02:35:22;33.45;;;24.70;;
49610;SDS011;35515;48.766;9.176;2023-05-16T02:37:48;34.67;;;24.67;;
49610;SDS011;35515;48.766;9.176;2023-05-16T02:40:15;32.55;;;23.88;;
49610;SDS011;35515;48.766;9.176;2023-05-16T02:42:42;36.67;;;24.65;;
49610;SDS011;35515;48.766;9.176;2023-05-16T02:45:08;38.20;;;25.50;;
49610;SDS011;35515;48.766;9.176;2023-05-16T02:47:36;34.20;;;24.42;;
49610;SDS011;35515;48.766;9.176;2023-05-16T02:50:04;41.55;;;26.77;;
49610;SDS011;35515;48.766;9.176;2023-05-16T02:52:31;35.13;;;24.30;;
49610;SDS011;35515;48.766;9.176;2023-05-16T02:54:58;38.85;;;26.48;;
49610;SDS011;35515;48.766;9.176;2023-05-16T02:57:24;38.20;;;25.95;;
49610;SDS011;35515;48.766;9.176;2023-05-16T02:59:51;37.95;;;25.95;;
49610;SDS011;35515;48.766;9.176;2023-05-16T03:02:18;39.63;;;25.70;;
49610;SDS011;35515;48.766;9.176;2023-05-16T03:04:44;40.65;;;26.20;;
49610;SDS011;35515;48.766;9.176;2023-05-16T03:07:12;36.30;;;25.15;;
49610;SDS011;35515;48.766;9.176;2023-05-16T03:09:39;39.03;;;26.45;;
49610;SDS011;35515;48.766;9.176;2023-05-16T03:12:06;45.28;;;26.05;;
49610;SDS011;35515;48.766;9.176;2023-05-16T03:14:32;42.20;;;28.40;;
49610;SDS011;35515;48.766;9.176;2023-05-16T03:16:59;43.28;;;27.98;;
49610;SDS011;35515;48.766;9.176;2023-05-16T03:19:26;40.78;;;27.45;;
49610;SDS011;35515;48.766;9.176;2023-05-16T03:21:52;46.83;;;29.20;;
49610;SDS011;35515;48.766;9.176;2023-05-16T03:24:20;43.70;;;28.75;;
49610;SDS011;35515;48.766;9.176;2023-05-16T03:26:47;44.95;;;29.58;;
49610;SDS011;35515;48.766;9.176;2023-05-16T03:29:13;46.70;;;29.80;;
49610;SDS011;35515;48.766;9.176;2023-05-16T03:31:40;46.75;;;29.30;;
49610;SDS011;35515;48.766;9.176;2023-05-16T03:34:07;46.30;;;31.50;;
49610;SDS011;35515;48.766;9.176;2023-05-16T03:36:33;47.55;;;29.33;;
49610;SDS011;35515;48.766;9.176;2023-05-16T03:39:00;45.30;;;29.05;;
49610;SDS011;35515;48.766;9.176;2023-05-16T03:41:28;44.90;;;29.73;;
49610;SDS011;35515;48.766;9.176;2023-05-16T03:43:55;45.08;;;29.70;;
49610;SDS011;35515;48.766;9.176;2023-05-16T03:46:21;45.35;;;29.73;;
49610;SDS011;35515;48.766;9.176;2023-05-16T03:48:48;47.92;;;31.38;;
49610;SDS011;35515;48.766;9.176;2023-05-16T03:51:14;50.78;;;32.83;;
49610;SDS011;35515;48.766;9.176;2023-05-16T03:53:41;45.85;;;30.50;;
49610;SDS011;35515;48.766;9.176;2023-05-16T03:56:07;50.08;;;31.95;;
49610;SDS011;35515;48.766;9.176;2023-05-16T03:58:35;48.70;;;31.35;;
49610;SDS011;35515;48.766;9.176;2023-05-16T04:01:02;51.17;;;32.55;;
49610;SDS011;35515;48.766;9.176;2023-05-16T04:03:28;46.78;;;31.13;;
49610;SDS011;35515;48.766;9.176;2023-05-16T04:05:59;49.03;;;31.15;;
49610;SDS011;35515;48.766;9.176;2023-05-16T04:08:26;47.15;;;30.83;;
49610;SDS011;35515;48.766;9.176;2023-05-16T04:10:52;50.05;;;32.70;;
49610;SDS011;35515;48.766;9.176;2023-05-16T04:13:19;48.85;;;32.63;;
49610;SDS011;35515;48.766;9.176;2023-05-16T04:15:48;51.00;;;33.47;;
49610;SDS011;35515;48.766;9.176;2023-05-16T04:18:14;53.58;;;33.28;;
49610;SDS011;35515;48.766;9.176;2023-05-16T04:20:41;56.85;;;33.60;;
49610;SDS011;35515;48.766;9.176;2023-05-16T04:23:08;53.83;;;32.78;;
49610;SDS011;35515;48.766;9.176;2023-05-16T04:25:35;56.63;;;33.53;;
49610;SDS011;35515;48.766;9.176;2023-05-16T04:28:03;57.05;;;33.55;;
49610;SDS011;35515;48.766;9.176;2023-05-16T04:30:29;55.20;;;32.90;;
49610;SDS011;35515;48.766;9.176;2023-05-16T04:32:57;52.17;;;33.47;;
49610;SDS011;35515;48.766;9.176;2023-05-16T04:35:24;47.70;;;31.65;;
49610;SDS011;35515;48.766;9.176;2023-05-16T04:37:52;58.20;;;33.42;;
49610;SDS011;35515;48.766;9.176;2023-05-16T04:40:18;53.42;;;32.60;;
49610;SDS011;35515;48.766;9.176;2023-05-16T04:42:45;53.55;;;33.47;;
49610;SDS011;35515;48.766;9.176;2023-05-16T04:45:11;53.33;;;33.55;;
49610;SDS011;35515;48.766;9.176;2023-05-16T04:47:38;52.55;;;32.50;;
49610;SDS011;35515;48.766;9.176;2023-05-16T04:50:07;48.78;;;32.08;;
49610;SDS011;35515;48.766;9.176;2023-05-16T04:52:34;51.42;;;32.95;;
49610;SDS011;35515;48.766;9.176;2023-05-16T04:55:02;50.75;;;32.33;;
49610;SDS011;35515;48.766;9.176;2023-05-16T04:57:29;51.10;;;33.10;;
49610;SDS011;35515;48.766;9.176;2023-05-16T04:59:55;52.25;;;34.72;;
49610;SDS011;35515;48.766;9.176;2023-05-16T05:02:22;54.15;;;34.08;;
49610;SDS011;35515;48.766;9.176;2023-05-16T05:04:49;52.50;;;34.90;;
49610;SDS011;35515;48.766;9.176;2023-05-16T05:07:16;49.17;;;30.85;;
49610;SDS011;35515;48.766;9.176;2023-05-16T05:09:43;45.15;;;30.75;;
49610;SDS011;35515;48.766;9.176;2023-05-16T05:12:10;53.20;;;33.65;;
49610;SDS011;35515;48.766;9.176;2023-05-16T05:14:37;48.83;;;31.95;;
49610;SDS011;35515;48.766;9.176;2023-05-16T05:17:03;52.95;;;33.80;;
49610;SDS011;35515;48.766;9.176;2023-05-16T05:19:30;51.90;;;33.35;;
49610;SDS011;35515;48.766;9.176;2023-05-16T05:21:56;52.15;;;31.25;;
49610;SDS011;35515;48.766;9.176;2023-05-16T05:24:25;50.67;;;31.15;;
49610;SDS011;35515;48.766;9.176;2023-05-16T05:26:52;47.40;;;30.63;;
49610;SDS011;35515;48.766;9.176;2023-05-16T05:29:18;51.67;;;31.23;;
49610;SDS011;35515;48.766;9.176;2023-05-16T05:31:45;51.00;;;30.40;;
49610;SDS011;35515;48.766;9.176;2023-05-16T05:34:11;46.72;;;30.13;;
49610;SDS011;35515;48.766;9.176;2023-05-16T05:36:38;47.88;;;30.65;;
49610;SDS011;35515;48.766;9.176;2023-05-16T05:39:04;48.97;;;32.78;;
49610;SDS011;35515;48.766;9.176;2023-05-16T05:41:32;53.88;;;33.80;;
49610;SDS011;35515;48.766;9.176;2023-05-16T05:43:59;51.47;;;32.95;;
49610;SDS011;35515;48.766;9.176;2023-05-16T05:46:26;57.40;;;34.47;;
49610;SDS011;35515;48.766;9.176;2023-05-16T05:48:52;50.58;;;31.75;;
49610;SDS011;35515;48.766;9.176;2023-05-16T05:51:19;49.25;;;32.30;;
49610;SDS011;35515;48.766;9.176;2023-05-16T05:53:45;50.42;;;32.58;;
49610;SDS011;35515;48.766;9.176;2023-05-16T05:56:12;52.78;;;33.03;;
49610;SDS011;35515;48.766;9.176;2023-05-16T05:58:40;47.45;;;30.60;;
49610;SDS011;35515;48.766;9.176;2023-05-16T06:01:07;49.28;;;30.88;;
49610;SDS011;35515;48.766;9.176;2023-05-16T06:03:33;54.63;;;33.30;;
49610;SDS011;35515;48.766;9.176;2023-05-16T06:06:00;48.85;;;32.17;;
49610;SDS011;35515;48.766;9.176;2023-05-16T06:08:26;51.15;;;31.20;;
49610;SDS011;35515;48.766;9.176;2023-05-16T06:10:53;47.17;;;29.45;;
49610;SDS011;35515;48.766;9.176;2023-05-16T06:13:19;46.13;;;28.52;;
49610;SDS011;35515;48.766;9.176;2023-05-16T06:15:49;45.45;;;28.65;;
49610;SDS011;35515;48.766;9.176;2023-05-16T06:18:16;49.97;;;31.92;;
49610;SDS011;35515;48.766;9.176;2023-05-16T06:20:43;51.20;;;31.58;;
49610;SDS011;35515;48.766;9.176;2023-05-16T06:23:09;46.08;;;29.67;;
49610;SDS011;35515;48.766;9.176;2023-05-16T06:25:36;47.90;;;28.98;;
49610;SDS011;35515;48.766;9.176;2023-05-16T06:28:03;47.60;;;29.88;;
49610;SDS011;35515;48.766;9.176;2023-05-16T06:30:30;45.88;;;29.90;;
49610;SDS011;35515;48.766;9.176;2023-05-16T06:32:58;45.03;;;28.65;;
49610;SDS011;35515;48.766;9.176;2023-05-16T06:35:24;46.65;;;29.23;;
49610;SDS011;35515;48.766;9.176;2023-05-16T06:37:51;43.97;;;28.98;;
49610;SDS011;35515;48.766;9.176;2023-05-16T06:40:18;43.65;;;26.88;;
49610;SDS011;35515;48.766;9.176;2023-05-16T06:42:44;41.53;;;26.85;;
49610;SDS011;35515;48.766;9.176;2023-05-16T06:45:11;41.45;;;28.38;;
49610;SDS011;35515;48.766;9.176;2023-05-16T06:47:37;44.60;;;27.50;;
49610;SDS011;35515;48.766;9.176;2023-05-16T06:50:06;42.92;;;28.45;;
49610;SDS011;35515;48.766;9.176;2023-05-16T06:52:34;44.63;;;29.52;;
49610;SDS011;35515;48.766;9.176;2023-05-16T06:55:00;44.78;;;27.73;;
49610;SDS011;35515;48.766;9.176;2023-05-16T06:57:27;41.20;;;27.58;;
49610;SDS011;35515;48.766;9.176;2023-05-16T06:59:54;40.22;;;27.83;;
49610;SDS011;35515;48.766;9.176;2023-05-16T07:02:20;39.95;;;26.02;;
49610;SDS011;35515;48.766;9.176;2023-05-16T07:04:47;37.22;;;25.88;;
49610;SDS011;35515;48.766;9.176;2023-05-16T07:07:15;37.15;;;24.73;;
49610;SDS011;35515;48.766;9.176;2023-05-16T07:09:41;39.17;;;26.42;;
49610;SDS011;35515;48.766;9.176;2023-05-16T07:12:08;36.00;;;23.85;;
49610;SDS011;35515;48.766;9.176;2023-05-16T07:14:34;36.15;;;23.98;;
49610;SDS011;35515;48.766;9.176;2023-05-16T07:17:01;39.30;;;24.05;;
49610;SDS011;35515;48.766;9.176;2023-05-16T07:19:28;31.15;;;21.75;;
49610;SDS011;35515;48.766;9.176;2023-05-16T07:21:55;33.22;;;22.73;;
49610;SDS011;35515;48.766;9.176;2023-05-16T07:24:22;34.65;;;23.10;;
49610;SDS011;35515;48.766;9.176;2023-05-16T07:26:49;31.92;;;22.13;;
49610;SDS011;35515;48.766;9.176;2023-05-16T07:29:16;30.33;;;20.15;;
49610;SDS011;35515;48.766;9.176;2023-05-16T07:31:42;24.40;;;18.38;;
49610;SDS011;35515;48.766;9.176;2023-05-16T07:34:09;24.33;;;17.35;;
49610;SDS011;35515;48.766;9.176;2023-05-16T07:36:36;20.33;;;14.80;;
49610;SDS011;35515;48.766;9.176;2023-05-16T07:39:02;22.38;;;15.85;;
49610;SDS011;35515;48.766;9.176;2023-05-16T07:41:30;20.10;;;14.45;;
49610;SDS011;35515;48.766;9.176;2023-05-16T07:43:57;18.55;;;13.00;;
49610;SDS011;35515;48.766;9.176;2023-05-16T07:46:23;17.98;;;12.93;;
49610;SDS011;35515;48.766;9.176;2023-05-16T07:48:50;19.48;;;12.98;;
49610;SDS011;35515;48.766;9.176;2023-05-16T07:51:16;19.05;;;12.60;;
49610;SDS011;35515;48.766;9.176;2023-05-16T07:53:43;13.68;;;10.85;;
49610;SDS011;35515;48.766;9.176;2023-05-16T07:56:10;13.05;;;10.60;;
49610;SDS011;35515;48.766;9.176;2023-05-16T07:58:38;13.38;;;9.73;;
49610;SDS011;35515;48.766;9.176;2023-05-16T08:01:06;13.15;;;10.40;;
49610;SDS011;35515;48.766;9.176;2023-05-16T08:03:33;13.48;;;10.18;;
49610;SDS011;35515;48.766;9.176;2023-05-16T08:06:00;11.90;;;9.25;;
49610;SDS011;35515;48.766;9.176;2023-05-16T08:08:27;12.55;;;9.95;;
49610;SDS011;35515;48.766;9.176;2023-05-16T08:10:53;19.80;;;10.52;;
49610;SDS011;35515;48.766;9.176;2023-05-16T08:13:20;12.70;;;9.85;;
49610;SDS011;35515;48.766;9.176;2023-05-16T08:15:48;13.80;;;10.23;;
49610;SDS011;35515;48.766;9.176;2023-05-16T08:18:14;14.35;;;11.32;;
49610;SDS011;35515;48.766;9.176;2023-05-16T08:20:41;13.23;;;11.32;;
49610;SDS011;35515;48.766;9.176;2023-05-16T08:23:07;14.77;;;11.30;;
49610;SDS011;35515;48.766;9.176;2023-05-16T08:25:34;15.90;;;11.30;;
49610;SDS011;35515;48.766;9.176;2023-05-16T08:28:01;14.98;;;12.00;;
49610;SDS011;35515;48.766;9.176;2023-05-16T08:30:27;15.88;;;12.30;;
49610;SDS011;35515;48.766;9.176;2023-05-16T08:32:55;16.17;;;12.07;;
49610;SDS011;35515;48.766;9.176;2023-05-16T08:35:22;13.70;;;12.07;;
49610;SDS011;35515;48.766;9.176;2023-05-16T08:37:48;16.63;;;12.27;;
49610;SDS011;35515;48.766;9.176;2023-05-16T08:40:15;15.85;;;12.43;;
49610;SDS011;35515;48.766;9.176;2023-05-16T08:42:42;16.85;;;13.05;;
49610;SDS011;35515;48.766;9.176;2023-05-16T08:45:09;19.27;;;13.38;;
49610;SDS011;35515;48.766;9.176;2023-05-16T08:47:36;18.67;;;13.95;;
49610;SDS011;35515;48.766;9.176;2023-05-16T08:50:08;19.13;;;13.95;;
49610;SDS011;35515;48.766;9.176;2023-05-16T08:52:36;18.90;;;14.43;;
49610;SDS011;35515;48.766;9.176;2023-05-16T08:55:04;19.67;;;14.65;;
49610;SDS011;35515;48.766;9.176;2023-05-16T08:57:33;22.10;;;16.10;;
49610;SDS011;35515;48.766;9.176;2023-05-16T09:00:00;21.52;;;15.73;;
49610;SDS011;35515;48.766;9.176;2023-05-16T09:02:35;23.17;;;16.02;;
49610;SDS011;35515;48.766;9.176;2023-05-16T09:05:03;25.85;;;16.58;;
49610;SDS011;35515;48.766;9.176;2023-05-16T09:07:31;21.83;;;16.33;;
49610;SDS011;35515;48.766;9.176;2023-05-16T09:09:58;22.92;;;15.18;;
49610;SDS011;35515;48.766;9.176;2023-05-16T09:12:24;21.70;;;15.68;;
49610;SDS011;35515;48.766;9.176;2023-05-16T09:14:51;22.70;;;16.58;;
49610;SDS011;35515;48.766;9.176;2023-05-16T09:17:17;20.33;;;15.40;;
49610;SDS011;35515;48.766;9.176;2023-05-16T09:19:45;25.45;;;17.65;;
49610;SDS011;35515;48.766;9.176;2023-05-16T09:22:13;21.50;;;15.20;;
49610;SDS011;35515;48.766;9.176;2023-05-16T09:24:42;22.80;;;16.20;;
49610;SDS011;35515;48.766;9.176;2023-05-16T09:27:10;23.27;;;16.75;;
49610;SDS011;35515;48.766;9.176;2023-05-16T09:29:39;23.35;;;16.52;;
49610;SDS011;35515;48.766;9.176;2023-05-16T09:32:10;25.13;;;18.42;;
49610;SDS011;35515;48.766;9.176;2023-05-16T09:34:38;24.92;;;17.13;;
49610;SDS011;35515;48.766;9.176;2023-05-16T09:37:08;24.95;;;17.90;;
49610;SDS011;35515;48.766;9.176;2023-05-16T09:39:35;24.48;;;17.50;;
49610;SDS011;35515;48.766;9.176;2023-05-16T09:42:03;23.13;;;17.80;;
49610;SDS011;35515;48.766;9.176;2023-05-16T09:44:30;23.40;;;16.75;;
49610;SDS011;35515;48.766;9.176;2023-05-16T09:46:57;26.60;;;18.77;;
49610;SDS011;35515;48.766;9.176;2023-05-16T09:49:23;27.83;;;20.10;;
49610;SDS011;35515;48.766;9.176;2023-05-16T09:51:51;28.13;;;18.98;;
49610;SDS011;35515;48.766;9.176;2023-05-16T09:54:27;29.33;;;19.17;;
49610;SDS011;35515;48.766;9.176;2023-05-16T09:56:55;27.83;;;18.85;;
49610;SDS011;35515;48.766;9.176;2023-05-16T09:59:23;28.60;;;19.95;;
49610;SDS011;35515;48.766;9.176;2023-05-16T10:01:49;27.77;;;19.10;;
49610;SDS011;35515;48.766;9.176;2023-05-16T10:04:18;25.75;;;18.42;;
49610;SDS011;35515;48.766;9.176;2023-05-16T10:06:44;24.77;;;17.65;;
49610;SDS011;35515;48.766;9.176;2023-05-16T10:09:12;26.75;;;18.00;;
49610;SDS011;35515;48.766;9.176;2023-05-16T10:11:41;26.23;;;18.75;;
49610;SDS011;35515;48.766;9.176;2023-05-16T10:14:08;26.67;;;17.27;;
49610;SDS011;35515;48.766;9.176;2023-05-16T10:16:38;27.60;;;18.60;;
49610;SDS011;35515;48.766;9.176;2023-05-16T10:19:08;27.15;;;18.80;;
49610;SDS011;35515;48.766;9.176;2023-05-16T10:21:37;25.80;;;19.05;;
49610;SDS011;35515;48.766;9.176;2023-05-16T10:24:06;28.65;;;19.88;;
49610;SDS011;35515;48.766;9.176;2023-05-16T10:29:04;28.35;;;17.75;;
49610;SDS011;35515;48.766;9.176;2023-05-16T10:31:31;26.35;;;18.33;;
49610;SDS011;35515;48.766;9.176;2023-05-16T10:33:59;23.65;;;16.65;;
49610;SDS011;35515;48.766;9.176;2023-05-16T10:36:26;24.05;;;17.02;;
49610;SDS011;35515;48.766;9.176;2023-05-16T10:38:52;22.73;;;16.80;;
49610;SDS011;35515;48.766;9.176;2023-05-16T10:41:20;25.42;;;16.70;;
49610;SDS011;35515;48.766;9.176;2023-05-16T10:43:54;25.20;;;16.92;;
49610;SDS011;35515;48.766;9.176;2023-05-16T10:46:22;26.23;;;17.42;;
49610;SDS011;35515;48.766;9.176;2023-05-16T10:48:49;23.13;;;16.65;;
49610;SDS011;35515;48.766;9.176;2023-05-16T10:54:05;24.25;;;16.23;;
49610;SDS011;35515;48.766;9.176;2023-05-16T10:56:34;27.23;;;17.80;;
49610;SDS011;35515;48.766;9.176;2023-05-16T10:59:01;25.08;;;15.45;;
49610;SDS011;35515;48.766;9.176;2023-05-16T11:01:29;22.95;;;15.55;;
49610;SDS011;35515;48.766;9.176;2023-05-16T11:04:00;25.30;;;16.77;;
49610;SDS011;35515;48.766;9.176;2023-05-16T11:06:30;23.80;;;15.80;;
49610;SDS011;35515;48.766;9.176;2023-05-16T11:09:04;21.35;;;13.40;;
49610;SDS011;35515;48.766;9.176;2023-05-16T11:11:37;22.40;;;15.30;;
49610;SDS011;35515;48.766;9.176;2023-05-16T11:14:04;23.08;;;14.48;;
49610;SDS011;35515;48.766;9.176;2023-05-16T11:16:32;25.77;;;15.18;;
49610;SDS011;35515;48.766;9.176;2023-05-16T11:19:03;21.67;;;13.57;;
49610;SDS011;35515;48.766;9.176;2023-05-16T11:24:32;18.98;;;13.30;;
49610;SDS011;35515;48.766;9.176;2023-05-16T11:27:00;17.73;;;13.27;;
49610;SDS011;35515;48.766;9.176;2023-05-16T11:29:28;22.23;;;14.70;;
49610;SDS011;35515;48.766;9.176;2023-05-16T11:31:57;23.65;;;14.10;;
49610;SDS011;35515;48.766;9.176;2023-05-16T11:34:23;20.08;;;13.68;;
49610;SDS011;35515;48.766;9.176;2023-05-16T11:36:50;21.02;;;13.70;;
49610;SDS011;35515;48.766;9.176;2023-05-16T11:39:17;18.45;;;11.88;;
49610;SDS011;35515;48.766;9.176;2023-05-16T11:41:45;22.60;;;13.68;;
49610;SDS011;35515;48.766;9.176;2023-05-16T11:44:12;19.50;;;12.18;;
49610;SDS011;35515;48.766;9.176;2023-05-16T11:46:38;17.20;;;11.18;;
49610;SDS011;35515;48.766;9.176;2023-05-16T11:49:06;15.52;;;10.68;;
49610;SDS011;35515;48.766;9.176;2023-05-16T11:51:33;13.40;;;9.63;;
49610;SDS011;35515;48.766;9.176;2023-05-16T11:54:02;14.80;;;10.15;;
49610;SDS011;35515;48.766;9.176;2023-05-16T11:56:30;13.48;;;9.82;;
49610;SDS011;35515;48.766;9.176;2023-05-16T11:58:58;19.17;;;10.48;;
49610;SDS011;35515;48.766;9.176;2023-05-16T12:01:25;11.82;;;9.02;;
49610;SDS011;35515;48.766;9.176;2023-05-16T12:03:57;14.20;;;9.52;;
49610;SDS011;35515;48.766;9.176;2023-05-16T12:06:23;16.35;;;10.43;;
49610;SDS011;35515;48.766;9.176;2023-05-16T12:08:50;15.23;;;10.70;;
49610;SDS011;35515;48.766;9.176;2023-05-16T12:13:42;27.43;;;10.67;;
49610;SDS011;35515;48.766;9.176;2023-05-16T12:16:11;15.00;;;10.10;;
49610;SDS011;35515;48.766;9.176;2023-05-16T12:18:38;14.15;;;9.73;;
49610;SDS011;35515;48.766;9.176;2023-05-16T12:21:04;13.38;;;9.63;;
49610;SDS011;35515;48.766;9.176;2023-05-16T12:23:32;13.35;;;9.45;;
49610;SDS011;35515;48.766;9.176;2023-05-16T12:25:59;12.95;;;9.18;;
49610;SDS011;35515;48.766;9.176;2023-05-16T12:28:29;10.13;;;7.68;;
49610;SDS011;35515;48.766;9.176;2023-05-16T12:30:57;11.50;;;8.32;;
49610;SDS011;35515;48.766;9.176;2023-05-16T12:33:26;12.85;;;8.60;;
49610;SDS011;35515;48.766;9.176;2023-05-16T12:35:53;10.05;;;7.97;;
49610;SDS011;35515;48.766;9.176;2023-05-16T12:38:19;14.65;;;7.25;;
49610;SDS011;35515;48.766;9.176;2023-05-16T12:40:50;12.82;;;7.65;;
49610;SDS011;35515;48.766;9.176;2023-05-16T12:43:23;11.35;;;6.63;;
49610;SDS011;35515;48.766;9.176;2023-05-16T12:45:50;9.57;;;6.72;;
49610;SDS011;35515;48.766;9.176;2023-05-16T12:48:17;7.80;;;5.20;;
49610;SDS011;35515;48.766;9.176;2023-05-16T12:50:45;7.25;;;5.25;;
49610;SDS011;35515;48.766;9.176;2023-05-16T12:53:13;9.20;;;5.85;;
49610;SDS011;35515;48.766;9.176;2023-05-16T12:55:40;8.68;;;5.75;;
49610;SDS011;35515;48.766;9.176;2023-05-16T12:58:07;6.78;;;5.60;;
49610;SDS011;35515;48.766;9.176;2023-05-16T13:00:34;7.50;;;5.20;;
49610;SDS011;35515;48.766;9.176;2023-05-16T13:03:01;6.18;;;4.60;;
49610;SDS011;35515;48.766;9.176;2023-05-16T13:05:28;7.13;;;4.97;;
49610;SDS011;35515;48.766;9.176;2023-05-16T13:07:56;6.80;;;4.90;;
49610;SDS011;35515;48.766;9.176;2023-05-16T13:10:22;11.20;;;5.72;;
49610;SDS011;35515;48.766;9.176;2023-05-16T13:12:51;7.00;;;5.03;;
49610;SDS011;35515;48.766;9.176;2023-05-16T13:15:17;5.72;;;4.53;;
49610;SDS011;35515;48.766;9.176;2023-05-16T13:17:44;5.97;;;4.45;;
49610;SDS011;35515;48.766;9.176;2023-05-16T13:20:12;5.30;;;4.65;;
49610;SDS011;35515;48.766;9.176;2023-05-16T13:22:39;5.70;;;4.53;;
49610;SDS011;35515;48.766;9.176;2023-05-16T13:25:08;4.80;;;4.10;;
49610;SDS011;35515;48.766;9.176;2023-05-16T13:27:35;7.47;;;4.30;;
49610;SDS011;35515;48.766;9.176;2023-05-16T13:30:02;5.45;;;3.88;;
49610;SDS011;35515;48.766;9.176;2023-05-16T13:32:29;6.40;;;3.63;;
49610;SDS011;35515;48.766;9.176;2023-05-16T13:34:56;4.15;;;3.50;;
49610;SDS011;35515;48.766;9.176;2023-05-16T13:37:22;8.88;;;5.65;;
49610;SDS011;35515;48.766;9.176;2023-05-16T13:39:49;6.70;;;3.95;;
49610;SDS011;35515;48.766;9.176;2023-05-16T13:42:17;4.25;;;3.10;;
49610;SDS011;35515;48.766;9.176;2023-05-16T13:44:45;3.70;;;3.30;;
49610;SDS011;35515;48.766;9.176;2023-05-16T13:47:11;4.63;;;2.92;;
49610;SDS011;35515;48.766;9.176;2023-05-16T13:49:38;6.00;;;3.72;;
49610;SDS011;35515;48.766;9.176;2023-05-16T13:52:05;4.78;;;3.75;;
49610;SDS011;35515;48.766;9.176;2023-05-16T13:54:32;5.32;;;3.35;;
49610;SDS011;35515;48.766;9.176;2023-05-16T13:56:59;5.68;;;3.30;;
49610;SDS011;35515;48.766;9.176;2023-05-16T13:59:27;7.15;;;3.17;;
49610;SDS011;35515;48.766;9.176;2023-05-16T14:01:54;4.68;;;3.38;;
49610;SDS011;35515;48.766;9.176;2023-05-16T14:04:21;6.47;;;3.90;;
49610;SDS011;35515;48.766;9.176;2023-05-16T14:06:47;4.10;;;3.47;;
49610;SDS011;35515;48.766;9.176;2023-05-16T14:09:14;4.78;;;3.33;;
49610;SDS011;35515;48.766;9.176;2023-05-16T14:11:41;4.22;;;2.88;;
49610;SDS011;35515;48.766;9.176;2023-05-16T14:14:07;6.00;;;3.15;;
49610;SDS011;35515;48.766;9.176;2023-05-16T14:16:35;6.10;;;3.60;;
49610;SDS011;35515;48.766;9.176;2023-05-16T14:19:02;5.22;;;3.50;;
49610;SDS011;35515;48.766;9.176;2023-05-16T14:21:28;6.75;;;3.30;;
49610;SDS011;35515;48.766;9.176;2023-05-16T14:23:55;5.68;;;3.95;;
49610;SDS011;35515;48.766;9.176;2023-05-16T14:26:21;4.60;;;3.55;;
49610;SDS011;35515;48.766;9.176;2023-05-16T14:28:49;5.05;;;3.58;;
49610;SDS011;35515;48.766;9.176;2023-05-16T14:31:16;5.45;;;3.50;;
49610;SDS011;35515;48.766;9.176;2023-05-16T14:33:44;5.95;;;3.55;;
49610;SDS011;35515;48.766;9.176;2023-05-16T14:36:10;5.53;;;3.58;;
49610;SDS011;35515;48.766;9.176;2023-05-16T14:38:37;5.82;;;3.60;;
49610;SDS011;35515;48.766;9.176;2023-05-16T14:41:03;7.43;;;4.72;;
49610;SDS011;35515;48.766;9.176;2023-05-16T14:43:30;5.80;;;3.58;;